< < Back
Terminal Aerodrome Forecast


Current Version              Previous Versions:   1  2  3  4  5  6  7  8  9  

Terminal Aerodrome Forecast

238
FTUS42 KFFC 221127
TAFPDK
TAF
KPDK 221127Z 2212/2312 35007KT P6SM SKC
     FM221400 03006KT P6SM FEW040
     FM222000 36005KT P6SM FEW050
     FM230700 08003KT P6SM SKC=



Latest METAR

643
SAUS70 KWBC 221100 RRF
MTRPDK
METAR KPDK 221053Z 33007KT 7SM CLR 11/08 A3014 RMK AO2 SLP200
T01060078


USA.gov is the U.S. government's official web portal to all federal, state and local government web resources and services.